sensor_id;sensor_type;location;lat;lon;timestamp;P1;durP1;ratioP1;P2;durP2;ratioP2
13374;SDS011;6756;51.354;15.754;2022-07-29T00:02:40;2.03;;;1.30;;
13374;SDS011;6756;51.354;15.754;2022-07-29T00:06:41;1.23;;;1.10;;
13374;SDS011;6756;51.354;15.754;2022-07-29T00:10:41;2.03;;;1.17;;
13374;SDS011;6756;51.354;15.754;2022-07-29T00:14:42;2.60;;;1.20;;
13374;SDS011;6756;51.354;15.754;2022-07-29T00:18:43;2.20;;;1.27;;
13374;SDS011;6756;51.354;15.754;2022-07-29T00:22:44;2.40;;;1.20;;
13374;SDS011;6756;51.354;15.754;2022-07-29T00:26:45;1.63;;;0.93;;
13374;SDS011;6756;51.354;15.754;2022-07-29T00:30:46;1.57;;;1.03;;
13374;SDS011;6756;51.354;15.754;2022-07-29T00:34:46;1.10;;;0.90;;
13374;SDS011;6756;51.354;15.754;2022-07-29T00:39:06;1.50;;;1.37;;
13374;SDS011;6756;51.354;15.754;2022-07-29T00:43:07;1.77;;;1.13;;
13374;SDS011;6756;51.354;15.754;2022-07-29T00:47:08;2.23;;;1.10;;
13374;SDS011;6756;51.354;15.754;2022-07-29T00:51:10;2.00;;;1.27;;
13374;SDS011;6756;51.354;15.754;2022-07-29T00:55:13;1.73;;;0.80;;
13374;SDS011;6756;51.354;15.754;2022-07-29T00:59:15;1.93;;;1.30;;
13374;SDS011;6756;51.354;15.754;2022-07-29T01:03:16;1.70;;;1.30;;
13374;SDS011;6756;51.354;15.754;2022-07-29T01:07:17;2.10;;;1.60;;
13374;SDS011;6756;51.354;15.754;2022-07-29T01:11:18;1.73;;;1.10;;
13374;SDS011;6756;51.354;15.754;2022-07-29T01:15:20;4.27;;;1.50;;
13374;SDS011;6756;51.354;15.754;2022-07-29T01:32:55;1.20;;;1.07;;
13374;SDS011;6756;51.354;15.754;2022-07-29T01:41:21;2.40;;;1.27;;
13374;SDS011;6756;51.354;15.754;2022-07-29T01:49:48;2.10;;;1.50;;
13374;SDS011;6756;51.354;15.754;2022-07-29T01:54:02;2.93;;;1.43;;
13374;SDS011;6756;51.354;15.754;2022-07-29T01:58:03;2.37;;;1.10;;
13374;SDS011;6756;51.354;15.754;2022-07-29T02:02:06;2.47;;;1.13;;
13374;SDS011;6756;51.354;15.754;2022-07-29T02:06:10;5.03;;;2.50;;
13374;SDS011;6756;51.354;15.754;2022-07-29T02:10:13;2.17;;;1.30;;
13374;SDS011;6756;51.354;15.754;2022-07-29T02:14:15;1.77;;;1.57;;
13374;SDS011;6756;51.354;15.754;2022-07-29T02:18:18;1.83;;;1.20;;
13374;SDS011;6756;51.354;15.754;2022-07-29T02:22:20;2.10;;;1.30;;
13374;SDS011;6756;51.354;15.754;2022-07-29T02:26:23;2.07;;;1.20;;
13374;SDS011;6756;51.354;15.754;2022-07-29T02:30:25;1.90;;;1.43;;
13374;SDS011;6756;51.354;15.754;2022-07-29T02:34:28;2.30;;;1.57;;
13374;SDS011;6756;51.354;15.754;2022-07-29T02:38:30;2.10;;;1.43;;
13374;SDS011;6756;51.354;15.754;2022-07-29T02:42:50;3.07;;;1.60;;
13374;SDS011;6756;51.354;15.754;2022-07-29T02:46:52;1.87;;;1.23;;
13374;SDS011;6756;51.354;15.754;2022-07-29T02:51:17;2.07;;;1.40;;
13374;SDS011;6756;51.354;15.754;2022-07-29T02:55:29;2.37;;;1.43;;
13374;SDS011;6756;51.354;15.754;2022-07-29T02:59:36;2.97;;;1.43;;
13374;SDS011;6756;51.354;15.754;2022-07-29T03:03:42;2.97;;;1.50;;
13374;SDS011;6756;51.354;15.754;2022-07-29T03:07:47;2.03;;;1.60;;
13374;SDS011;6756;51.354;15.754;2022-07-29T03:11:52;1.90;;;1.30;;
13374;SDS011;6756;51.354;15.754;2022-07-29T03:15:54;3.27;;;1.60;;
13374;SDS011;6756;51.354;15.754;2022-07-29T03:19:55;2.10;;;1.50;;
13374;SDS011;6756;51.354;15.754;2022-07-29T03:23:56;2.60;;;1.67;;
13374;SDS011;6756;51.354;15.754;2022-07-29T03:27:57;2.27;;;1.47;;
13374;SDS011;6756;51.354;15.754;2022-07-29T03:31:58;3.53;;;1.57;;
13374;SDS011;6756;51.354;15.754;2022-07-29T03:35:59;5.00;;;1.93;;
13374;SDS011;6756;51.354;15.754;2022-07-29T03:40:03;2.63;;;1.73;;
13374;SDS011;6756;51.354;15.754;2022-07-29T03:44:07;3.77;;;1.40;;
13374;SDS011;6756;51.354;15.754;2022-07-29T03:48:10;2.53;;;1.50;;
13374;SDS011;6756;51.354;15.754;2022-07-29T03:52:15;2.47;;;1.57;;
13374;SDS011;6756;51.354;15.754;2022-07-29T03:56:16;1.93;;;1.37;;
13374;SDS011;6756;51.354;15.754;2022-07-29T04:00:19;2.57;;;1.60;;
13374;SDS011;6756;51.354;15.754;2022-07-29T04:04:21;2.87;;;1.50;;
13374;SDS011;6756;51.354;15.754;2022-07-29T04:08:22;4.37;;;1.80;;
13374;SDS011;6756;51.354;15.754;2022-07-29T04:12:22;2.30;;;1.60;;
13374;SDS011;6756;51.354;15.754;2022-07-29T04:16:23;2.97;;;1.67;;
13374;SDS011;6756;51.354;15.754;2022-07-29T04:20:24;4.03;;;1.70;;
13374;SDS011;6756;51.354;15.754;2022-07-29T04:24:25;3.00;;;1.73;;
13374;SDS011;6756;51.354;15.754;2022-07-29T04:28:27;3.33;;;1.47;;
13374;SDS011;6756;51.354;15.754;2022-07-29T04:32:28;3.70;;;2.20;;
13374;SDS011;6756;51.354;15.754;2022-07-29T04:36:29;4.40;;;2.20;;
13374;SDS011;6756;51.354;15.754;2022-07-29T04:40:30;3.63;;;2.03;;
13374;SDS011;6756;51.354;15.754;2022-07-29T04:44:32;3.90;;;2.17;;
13374;SDS011;6756;51.354;15.754;2022-07-29T04:48:33;2.70;;;1.80;;
13374;SDS011;6756;51.354;15.754;2022-07-29T04:52:34;3.17;;;2.30;;
13374;SDS011;6756;51.354;15.754;2022-07-29T04:56:35;5.40;;;2.27;;
13374;SDS011;6756;51.354;15.754;2022-07-29T05:00:37;4.60;;;1.97;;
13374;SDS011;6756;51.354;15.754;2022-07-29T05:04:39;2.77;;;2.03;;
13374;SDS011;6756;51.354;15.754;2022-07-29T05:08:40;3.33;;;2.30;;
13374;SDS011;6756;51.354;15.754;2022-07-29T05:12:40;5.37;;;2.30;;
13374;SDS011;6756;51.354;15.754;2022-07-29T05:16:41;3.13;;;2.73;;
13374;SDS011;6756;51.354;15.754;2022-07-29T05:20:43;3.97;;;2.00;;
13374;SDS011;6756;51.354;15.754;2022-07-29T05:24:44;3.50;;;1.93;;
13374;SDS011;6756;51.354;15.754;2022-07-29T05:28:44;4.57;;;1.80;;
13374;SDS011;6756;51.354;15.754;2022-07-29T05:32:45;2.97;;;1.67;;
13374;SDS011;6756;51.354;15.754;2022-07-29T05:36:47;3.67;;;2.00;;
13374;SDS011;6756;51.354;15.754;2022-07-29T05:40:47;6.47;;;1.83;;
13374;SDS011;6756;51.354;15.754;2022-07-29T05:44:48;5.97;;;2.00;;
13374;SDS011;6756;51.354;15.754;2022-07-29T05:48:49;4.10;;;1.87;;
13374;SDS011;6756;51.354;15.754;2022-07-29T05:52:50;4.13;;;1.90;;
13374;SDS011;6756;51.354;15.754;2022-07-29T05:56:50;3.07;;;1.70;;
13374;SDS011;6756;51.354;15.754;2022-07-29T06:00:51;5.03;;;1.80;;
13374;SDS011;6756;51.354;15.754;2022-07-29T06:04:53;4.73;;;2.10;;
13374;SDS011;6756;51.354;15.754;2022-07-29T06:08:53;2.40;;;1.83;;
13374;SDS011;6756;51.354;15.754;2022-07-29T06:12:54;6.57;;;1.93;;
13374;SDS011;6756;51.354;15.754;2022-07-29T06:16:55;8.30;;;2.50;;
13374;SDS011;6756;51.354;15.754;2022-07-29T06:20:56;4.37;;;2.00;;
13374;SDS011;6756;51.354;15.754;2022-07-29T06:24:57;5.27;;;2.90;;
13374;SDS011;6756;51.354;15.754;2022-07-29T06:28:57;6.37;;;1.80;;
13374;SDS011;6756;51.354;15.754;2022-07-29T06:32:58;2.63;;;1.70;;
13374;SDS011;6756;51.354;15.754;2022-07-29T06:37:00;4.30;;;1.63;;
13374;SDS011;6756;51.354;15.754;2022-07-29T06:41:05;5.10;;;2.20;;
13374;SDS011;6756;51.354;15.754;2022-07-29T06:45:12;5.40;;;2.23;;
13374;SDS011;6756;51.354;15.754;2022-07-29T06:49:12;3.47;;;2.07;;
13374;SDS011;6756;51.354;15.754;2022-07-29T06:53:14;5.50;;;2.27;;
13374;SDS011;6756;51.354;15.754;2022-07-29T06:57:15;8.57;;;2.43;;
13374;SDS011;6756;51.354;15.754;2022-07-29T07:01:15;8.40;;;2.13;;
13374;SDS011;6756;51.354;15.754;2022-07-29T07:05:16;6.50;;;1.70;;
13374;SDS011;6756;51.354;15.754;2022-07-29T07:09:17;6.17;;;2.03;;
13374;SDS011;6756;51.354;15.754;2022-07-29T07:13:18;2.67;;;1.80;;
13374;SDS011;6756;51.354;15.754;2022-07-29T07:17:19;5.77;;;2.63;;
13374;SDS011;6756;51.354;15.754;2022-07-29T07:21:20;4.30;;;2.50;;
13374;SDS011;6756;51.354;15.754;2022-07-29T07:25:21;2.60;;;1.97;;
13374;SDS011;6756;51.354;15.754;2022-07-29T07:29:21;6.00;;;2.40;;
13374;SDS011;6756;51.354;15.754;2022-07-29T07:33:22;6.40;;;2.50;;
13374;SDS011;6756;51.354;15.754;2022-07-29T07:37:23;4.70;;;2.30;;
13374;SDS011;6756;51.354;15.754;2022-07-29T07:41:24;10.97;;;2.70;;
13374;SDS011;6756;51.354;15.754;2022-07-29T07:45:25;4.80;;;2.77;;
13374;SDS011;6756;51.354;15.754;2022-07-29T07:49:27;6.43;;;2.73;;
13374;SDS011;6756;51.354;15.754;2022-07-29T07:53:27;42.23;;;6.03;;
13374;SDS011;6756;51.354;15.754;2022-07-29T07:57:29;7.67;;;2.60;;
13374;SDS011;6756;51.354;15.754;2022-07-29T08:01:30;7.57;;;2.77;;
13374;SDS011;6756;51.354;15.754;2022-07-29T08:05:31;3.70;;;2.43;;
13374;SDS011;6756;51.354;15.754;2022-07-29T08:09:32;4.57;;;2.20;;
13374;SDS011;6756;51.354;15.754;2022-07-29T08:13:34;5.17;;;2.27;;
13374;SDS011;6756;51.354;15.754;2022-07-29T08:17:35;12.17;;;2.50;;
13374;SDS011;6756;51.354;15.754;2022-07-29T08:21:35;6.27;;;2.20;;
13374;SDS011;6756;51.354;15.754;2022-07-29T08:25:37;4.23;;;2.53;;
13374;SDS011;6756;51.354;15.754;2022-07-29T08:29:41;6.30;;;2.70;;
13374;SDS011;6756;51.354;15.754;2022-07-29T08:33:42;3.17;;;2.10;;
13374;SDS011;6756;51.354;15.754;2022-07-29T08:37:43;5.47;;;2.30;;
13374;SDS011;6756;51.354;15.754;2022-07-29T08:41:44;6.03;;;2.30;;
13374;SDS011;6756;51.354;15.754;2022-07-29T08:45:46;5.43;;;2.50;;
13374;SDS011;6756;51.354;15.754;2022-07-29T08:49:48;5.40;;;2.07;;
13374;SDS011;6756;51.354;15.754;2022-07-29T08:53:50;9.50;;;2.70;;
13374;SDS011;6756;51.354;15.754;2022-07-29T08:57:51;4.67;;;2.67;;
13374;SDS011;6756;51.354;15.754;2022-07-29T09:01:52;3.47;;;2.50;;
13374;SDS011;6756;51.354;15.754;2022-07-29T09:05:54;4.90;;;2.20;;
13374;SDS011;6756;51.354;15.754;2022-07-29T09:09:55;4.23;;;2.20;;
13374;SDS011;6756;51.354;15.754;2022-07-29T09:13:56;4.13;;;2.03;;
13374;SDS011;6756;51.354;15.754;2022-07-29T09:17:57;3.63;;;2.20;;
13374;SDS011;6756;51.354;15.754;2022-07-29T09:21:59;3.30;;;2.33;;
13374;SDS011;6756;51.354;15.754;2022-07-29T09:26:04;2.43;;;1.80;;
13374;SDS011;6756;51.354;15.754;2022-07-29T09:30:09;4.40;;;1.88;;
13374;SDS011;6756;51.354;15.754;2022-07-29T09:34:14;4.25;;;1.90;;
13374;SDS011;6756;51.354;15.754;2022-07-29T09:38:17;3.15;;;1.88;;
13374;SDS011;6756;51.354;15.754;2022-07-29T09:42:27;5.80;;;2.00;;
13374;SDS011;6756;51.354;15.754;2022-07-29T09:46:29;3.15;;;1.50;;
13374;SDS011;6756;51.354;15.754;2022-07-29T09:50:37;6.65;;;1.67;;
13374;SDS011;6756;51.354;15.754;2022-07-29T09:54:41;3.55;;;1.70;;
13374;SDS011;6756;51.354;15.754;2022-07-29T09:58:42;2.90;;;1.55;;
13374;SDS011;6756;51.354;15.754;2022-07-29T10:02:43;2.58;;;1.70;;
13374;SDS011;6756;51.354;15.754;2022-07-29T10:06:57;3.55;;;1.70;;
13374;SDS011;6756;51.354;15.754;2022-07-29T10:11:10;3.73;;;1.70;;
13374;SDS011;6756;51.354;15.754;2022-07-29T10:15:11;6.32;;;1.48;;
13374;SDS011;6756;51.354;15.754;2022-07-29T10:19:12;6.57;;;1.67;;
13374;SDS011;6756;51.354;15.754;2022-07-29T10:23:13;2.42;;;1.60;;
13374;SDS011;6756;51.354;15.754;2022-07-29T10:27:15;3.42;;;1.60;;
13374;SDS011;6756;51.354;15.754;2022-07-29T10:31:19;5.25;;;1.92;;
13374;SDS011;6756;51.354;15.754;2022-07-29T10:44:39;6.43;;;1.90;;
13374;SDS011;6756;51.354;15.754;2022-07-29T10:53:04;4.68;;;1.60;;
13374;SDS011;6756;51.354;15.754;2022-07-29T11:01:29;4.70;;;1.48;;
13374;SDS011;6756;51.354;15.754;2022-07-29T11:05:30;1.73;;;1.25;;
13374;SDS011;6756;51.354;15.754;2022-07-29T11:14:15;4.53;;;1.30;;
13374;SDS011;6756;51.354;15.754;2022-07-29T11:18:17;4.38;;;1.67;;
13374;SDS011;6756;51.354;15.754;2022-07-29T11:22:33;2.15;;;1.38;;
13374;SDS011;6756;51.354;15.754;2022-07-29T11:26:35;4.05;;;1.67;;
13374;SDS011;6756;51.354;15.754;2022-07-29T11:39:26;3.80;;;1.60;;
13374;SDS011;6756;51.354;15.754;2022-07-29T11:43:45;6.00;;;1.50;;
13374;SDS011;6756;51.354;15.754;2022-07-29T11:47:52;4.82;;;1.40;;
13374;SDS011;6756;51.354;15.754;2022-07-29T11:51:56;4.10;;;1.70;;
13374;SDS011;6756;51.354;15.754;2022-07-29T11:55:57;2.38;;;1.50;;
13374;SDS011;6756;51.354;15.754;2022-07-29T11:59:59;3.90;;;1.40;;
13374;SDS011;6756;51.354;15.754;2022-07-29T12:04:06;18.55;;;2.00;;
13374;SDS011;6756;51.354;15.754;2022-07-29T12:12:10;5.78;;;1.60;;
13374;SDS011;6756;51.354;15.754;2022-07-29T12:16:15;4.55;;;1.73;;
13374;SDS011;6756;51.354;15.754;2022-07-29T12:20:27;4.60;;;1.88;;
13374;SDS011;6756;51.354;15.754;2022-07-29T12:24:41;7.43;;;2.08;;
13374;SDS011;6756;51.354;15.754;2022-07-29T12:28:43;4.32;;;1.80;;
13374;SDS011;6756;51.354;15.754;2022-07-29T12:32:45;2.95;;;1.35;;
13374;SDS011;6756;51.354;15.754;2022-07-29T12:36:47;6.57;;;1.63;;
13374;SDS011;6756;51.354;15.754;2022-07-29T12:40:49;3.03;;;1.50;;
13374;SDS011;6756;51.354;15.754;2022-07-29T12:44:52;4.18;;;1.30;;
13374;SDS011;6756;51.354;15.754;2022-07-29T12:48:53;3.85;;;1.75;;
13374;SDS011;6756;51.354;15.754;2022-07-29T12:53:03;5.13;;;1.60;;
13374;SDS011;6756;51.354;15.754;2022-07-29T12:57:10;2.90;;;1.70;;
13374;SDS011;6756;51.354;15.754;2022-07-29T13:05:16;2.72;;;1.63;;
13374;SDS011;6756;51.354;15.754;2022-07-29T13:09:18;5.25;;;1.80;;
13374;SDS011;6756;51.354;15.754;2022-07-29T13:13:22;2.75;;;1.80;;
13374;SDS011;6756;51.354;15.754;2022-07-29T13:17:23;5.15;;;1.92;;
13374;SDS011;6756;51.354;15.754;2022-07-29T13:21:23;5.35;;;2.50;;
13374;SDS011;6756;51.354;15.754;2022-07-29T13:25:25;4.25;;;1.95;;
13374;SDS011;6756;51.354;15.754;2022-07-29T13:29:27;2.95;;;2.00;;
13374;SDS011;6756;51.354;15.754;2022-07-29T13:33:28;5.82;;;1.90;;
13374;SDS011;6756;51.354;15.754;2022-07-29T13:37:30;7.25;;;1.83;;
13374;SDS011;6756;51.354;15.754;2022-07-29T13:41:32;6.85;;;2.05;;
13374;SDS011;6756;51.354;15.754;2022-07-29T13:45:33;4.18;;;1.95;;
13374;SDS011;6756;51.354;15.754;2022-07-29T13:49:34;3.47;;;1.70;;
13374;SDS011;6756;51.354;15.754;2022-07-29T13:53:35;6.60;;;2.00;;
13374;SDS011;6756;51.354;15.754;2022-07-29T13:57:36;4.32;;;2.10;;
13374;SDS011;6756;51.354;15.754;2022-07-29T14:01:37;3.30;;;1.65;;
13374;SDS011;6756;51.354;15.754;2022-07-29T14:05:41;3.13;;;1.75;;
13374;SDS011;6756;51.354;15.754;2022-07-29T14:09:42;2.08;;;1.60;;
13374;SDS011;6756;51.354;15.754;2022-07-29T14:13:43;3.13;;;1.83;;
13374;SDS011;6756;51.354;15.754;2022-07-29T14:17:44;7.05;;;1.90;;
13374;SDS011;6756;51.354;15.754;2022-07-29T14:21:44;3.60;;;1.95;;
13374;SDS011;6756;51.354;15.754;2022-07-29T14:25:45;3.53;;;1.73;;
13374;SDS011;6756;51.354;15.754;2022-07-29T14:29:46;2.17;;;1.77;;
13374;SDS011;6756;51.354;15.754;2022-07-29T14:33:47;2.55;;;1.80;;
13374;SDS011;6756;51.354;15.754;2022-07-29T14:37:48;3.63;;;1.77;;
13374;SDS011;6756;51.354;15.754;2022-07-29T14:41:49;3.63;;;1.65;;
13374;SDS011;6756;51.354;15.754;2022-07-29T14:45:51;4.13;;;1.52;;
13374;SDS011;6756;51.354;15.754;2022-07-29T14:49:51;1.52;;;1.38;;
13374;SDS011;6756;51.354;15.754;2022-07-29T14:53:52;4.47;;;1.95;;
13374;SDS011;6756;51.354;15.754;2022-07-29T14:57:53;4.72;;;1.50;;
13374;SDS011;6756;51.354;15.754;2022-07-29T15:01:54;2.75;;;1.88;;
13374;SDS011;6756;51.354;15.754;2022-07-29T15:05:55;7.20;;;1.95;;
13374;SDS011;6756;51.354;15.754;2022-07-29T15:09:56;6.53;;;2.10;;
13374;SDS011;6756;51.354;15.754;2022-07-29T15:13:57;5.38;;;1.65;;
13374;SDS011;6756;51.354;15.754;2022-07-29T15:17:58;2.20;;;1.50;;
13374;SDS011;6756;51.354;15.754;2022-07-29T15:21:59;4.22;;;1.70;;
13374;SDS011;6756;51.354;15.754;2022-07-29T15:26:00;16.80;;;3.15;;
13374;SDS011;6756;51.354;15.754;2022-07-29T15:30:01;7.35;;;1.98;;
13374;SDS011;6756;51.354;15.754;2022-07-29T15:34:02;5.28;;;1.65;;
13374;SDS011;6756;51.354;15.754;2022-07-29T15:38:02;4.30;;;2.00;;
13374;SDS011;6756;51.354;15.754;2022-07-29T15:42:03;2.63;;;1.90;;
13374;SDS011;6756;51.354;15.754;2022-07-29T15:46:04;5.40;;;1.80;;
13374;SDS011;6756;51.354;15.754;2022-07-29T15:50:24;3.53;;;1.80;;
13374;SDS011;6756;51.354;15.754;2022-07-29T15:54:25;3.42;;;1.73;;
13374;SDS011;6756;51.354;15.754;2022-07-29T15:58:26;2.42;;;1.67;;
13374;SDS011;6756;51.354;15.754;2022-07-29T16:02:27;8.48;;;2.10;;
13374;SDS011;6756;51.354;15.754;2022-07-29T16:06:28;3.80;;;2.55;;
13374;SDS011;6756;51.354;15.754;2022-07-29T16:10:28;3.75;;;2.25;;
13374;SDS011;6756;51.354;15.754;2022-07-29T16:14:29;4.88;;;1.85;;
13374;SDS011;6756;51.354;15.754;2022-07-29T16:18:30;6.53;;;3.05;;
13374;SDS011;6756;51.354;15.754;2022-07-29T16:22:31;2.40;;;1.77;;
13374;SDS011;6756;51.354;15.754;2022-07-29T16:26:32;3.63;;;1.67;;
13374;SDS011;6756;51.354;15.754;2022-07-29T16:30:34;3.13;;;1.70;;
13374;SDS011;6756;51.354;15.754;2022-07-29T16:34:35;5.40;;;2.10;;
13374;SDS011;6756;51.354;15.754;2022-07-29T16:38:36;3.90;;;2.00;;
13374;SDS011;6756;51.354;15.754;2022-07-29T16:42:37;5.37;;;2.40;;
13374;SDS011;6756;51.354;15.754;2022-07-29T16:46:38;4.87;;;1.80;;
13374;SDS011;6756;51.354;15.754;2022-07-29T16:50:38;4.77;;;1.80;;
13374;SDS011;6756;51.354;15.754;2022-07-29T16:54:39;2.37;;;1.50;;
13374;SDS011;6756;51.354;15.754;2022-07-29T16:58:41;6.93;;;1.83;;
13374;SDS011;6756;51.354;15.754;2022-07-29T17:02:42;6.37;;;2.23;;
13374;SDS011;6756;51.354;15.754;2022-07-29T17:06:43;4.30;;;2.00;;
13374;SDS011;6756;51.354;15.754;2022-07-29T17:10:47;13.03;;;2.40;;
13374;SDS011;6756;51.354;15.754;2022-07-29T17:14:47;3.67;;;1.90;;
13374;SDS011;6756;51.354;15.754;2022-07-29T17:18:48;3.80;;;1.87;;
13374;SDS011;6756;51.354;15.754;2022-07-29T17:22:51;4.30;;;2.10;;
13374;SDS011;6756;51.354;15.754;2022-07-29T17:26:52;3.83;;;2.07;;
13374;SDS011;6756;51.354;15.754;2022-07-29T17:30:53;5.67;;;2.30;;
13374;SDS011;6756;51.354;15.754;2022-07-29T17:34:54;5.57;;;2.30;;
13374;SDS011;6756;51.354;15.754;2022-07-29T17:38:56;4.67;;;1.93;;
13374;SDS011;6756;51.354;15.754;2022-07-29T17:43:00;6.80;;;3.72;;
13374;SDS011;6756;51.354;15.754;2022-07-29T17:47:00;5.78;;;2.53;;
13374;SDS011;6756;51.354;15.754;2022-07-29T17:51:01;4.30;;;2.45;;
13374;SDS011;6756;51.354;15.754;2022-07-29T17:55:02;4.15;;;1.92;;
13374;SDS011;6756;51.354;15.754;2022-07-29T17:59:04;6.85;;;2.38;;
13374;SDS011;6756;51.354;15.754;2022-07-29T18:03:09;5.93;;;2.17;;
13374;SDS011;6756;51.354;15.754;2022-07-29T18:07:09;2.65;;;1.98;;
13374;SDS011;6756;51.354;15.754;2022-07-29T18:11:10;4.50;;;2.10;;
13374;SDS011;6756;51.354;15.754;2022-07-29T18:15:12;3.80;;;2.13;;
13374;SDS011;6756;51.354;15.754;2022-07-29T18:19:13;5.90;;;2.27;;
13374;SDS011;6756;51.354;15.754;2022-07-29T18:23:15;3.00;;;2.07;;
13374;SDS011;6756;51.354;15.754;2022-07-29T18:27:16;5.63;;;1.93;;
13374;SDS011;6756;51.354;15.754;2022-07-29T18:31:16;5.20;;;2.20;;
13374;SDS011;6756;51.354;15.754;2022-07-29T18:35:17;5.00;;;2.20;;
13374;SDS011;6756;51.354;15.754;2022-07-29T18:39:18;4.93;;;2.03;;
13374;SDS011;6756;51.354;15.754;2022-07-29T18:43:19;5.37;;;2.40;;
13374;SDS011;6756;51.354;15.754;2022-07-29T18:47:20;3.00;;;2.30;;
13374;SDS011;6756;51.354;15.754;2022-07-29T18:51:21;7.20;;;2.50;;
13374;SDS011;6756;51.354;15.754;2022-07-29T18:55:22;3.17;;;2.40;;
13374;SDS011;6756;51.354;15.754;2022-07-29T18:59:23;5.03;;;2.40;;
13374;SDS011;6756;51.354;15.754;2022-07-29T19:03:24;8.03;;;2.83;;
13374;SDS011;6756;51.354;15.754;2022-07-29T19:07:25;4.50;;;2.50;;
13374;SDS011;6756;51.354;15.754;2022-07-29T19:11:26;7.93;;;3.10;;
13374;SDS011;6756;51.354;15.754;2022-07-29T19:15:27;5.33;;;2.57;;
13374;SDS011;6756;51.354;15.754;2022-07-29T19:19:28;4.77;;;2.37;;
13374;SDS011;6756;51.354;15.754;2022-07-29T19:23:29;5.93;;;3.10;;
13374;SDS011;6756;51.354;15.754;2022-07-29T19:27:30;3.37;;;2.47;;
13374;SDS011;6756;51.354;15.754;2022-07-29T19:31:30;4.87;;;2.67;;
13374;SDS011;6756;51.354;15.754;2022-07-29T19:35:31;2.43;;;2.20;;
13374;SDS011;6756;51.354;15.754;2022-07-29T19:39:32;3.23;;;2.40;;
13374;SDS011;6756;51.354;15.754;2022-07-29T19:43:33;7.27;;;2.77;;
13374;SDS011;6756;51.354;15.754;2022-07-29T19:47:34;7.77;;;3.13;;
13374;SDS011;6756;51.354;15.754;2022-07-29T19:51:35;13.20;;;11.80;;
13374;SDS011;6756;51.354;15.754;2022-07-29T19:55:36;8.20;;;6.80;;
13374;SDS011;6756;51.354;15.754;2022-07-29T19:59:37;4.63;;;3.47;;
13374;SDS011;6756;51.354;15.754;2022-07-29T20:03:38;5.83;;;4.77;;
13374;SDS011;6756;51.354;15.754;2022-07-29T20:07:38;6.70;;;2.70;;
13374;SDS011;6756;51.354;15.754;2022-07-29T20:11:39;3.67;;;3.00;;
13374;SDS011;6756;51.354;15.754;2022-07-29T20:15:40;4.37;;;2.70;;
13374;SDS011;6756;51.354;15.754;2022-07-29T20:19:41;6.97;;;3.30;;
13374;SDS011;6756;51.354;15.754;2022-07-29T20:23:42;4.60;;;2.50;;
13374;SDS011;6756;51.354;15.754;2022-07-29T20:27:43;3.03;;;2.37;;
13374;SDS011;6756;51.354;15.754;2022-07-29T20:31:44;5.30;;;3.17;;
13374;SDS011;6756;51.354;15.754;2022-07-29T20:35:45;3.97;;;2.37;;
13374;SDS011;6756;51.354;15.754;2022-07-29T20:39:46;4.67;;;3.10;;
13374;SDS011;6756;51.354;15.754;2022-07-29T20:43:47;4.70;;;3.10;;
13374;SDS011;6756;51.354;15.754;2022-07-29T20:47:51;3.70;;;2.57;;
13374;SDS011;6756;51.354;15.754;2022-07-29T20:51:52;2.80;;;2.50;;
13374;SDS011;6756;51.354;15.754;2022-07-29T20:55:53;3.10;;;2.23;;
13374;SDS011;6756;51.354;15.754;2022-07-29T20:59:54;2.93;;;2.57;;
13374;SDS011;6756;51.354;15.754;2022-07-29T21:03:55;2.40;;;2.20;;
13374;SDS011;6756;51.354;15.754;2022-07-29T21:07:56;3.03;;;2.17;;
13374;SDS011;6756;51.354;15.754;2022-07-29T21:11:57;2.47;;;2.20;;
13374;SDS011;6756;51.354;15.754;2022-07-29T21:15:59;2.50;;;2.30;;
13374;SDS011;6756;51.354;15.754;2022-07-29T21:20:01;3.10;;;2.40;;
13374;SDS011;6756;51.354;15.754;2022-07-29T21:24:03;3.13;;;2.30;;
13374;SDS011;6756;51.354;15.754;2022-07-29T21:28:06;3.80;;;2.47;;
13374;SDS011;6756;51.354;15.754;2022-07-29T21:32:25;3.07;;;2.53;;
13374;SDS011;6756;51.354;15.754;2022-07-29T21:36:26;3.57;;;2.40;;
13374;SDS011;6756;51.354;15.754;2022-07-29T21:40:27;2.47;;;2.20;;
13374;SDS011;6756;51.354;15.754;2022-07-29T21:44:29;3.73;;;2.73;;
13374;SDS011;6756;51.354;15.754;2022-07-29T21:48:30;2.70;;;2.43;;
13374;SDS011;6756;51.354;15.754;2022-07-29T21:52:30;3.47;;;2.93;;
13374;SDS011;6756;51.354;15.754;2022-07-29T21:56:31;4.73;;;3.03;;
13374;SDS011;6756;51.354;15.754;2022-07-29T22:00:32;4.73;;;3.20;;
13374;SDS011;6756;51.354;15.754;2022-07-29T22:04:33;3.60;;;2.80;;
13374;SDS011;6756;51.354;15.754;2022-07-29T22:08:34;4.60;;;2.73;;
13374;SDS011;6756;51.354;15.754;2022-07-29T22:12:35;4.20;;;2.63;;
13374;SDS011;6756;51.354;15.754;2022-07-29T22:16:36;2.30;;;2.07;;
13374;SDS011;6756;51.354;15.754;2022-07-29T22:20:37;4.37;;;2.70;;
13374;SDS011;6756;51.354;15.754;2022-07-29T22:24:38;3.23;;;2.90;;
13374;SDS011;6756;51.354;15.754;2022-07-29T22:28:38;4.17;;;2.97;;
13374;SDS011;6756;51.354;15.754;2022-07-29T22:32:39;3.57;;;2.73;;
13374;SDS011;6756;51.354;15.754;2022-07-29T22:36:40;3.63;;;2.50;;
13374;SDS011;6756;51.354;15.754;2022-07-29T22:40:42;4.33;;;2.40;;
13374;SDS011;6756;51.354;15.754;2022-07-29T22:44:43;7.00;;;3.27;;
13374;SDS011;6756;51.354;15.754;2022-07-29T22:48:43;4.93;;;3.20;;
13374;SDS011;6756;51.354;15.754;2022-07-29T22:52:44;3.90;;;2.43;;
13374;SDS011;6756;51.354;15.754;2022-07-29T22:56:45;2.67;;;2.43;;
13374;SDS011;6756;51.354;15.754;2022-07-29T23:00:46;4.57;;;2.93;;
13374;SDS011;6756;51.354;15.754;2022-07-29T23:04:47;3.00;;;2.70;;
13374;SDS011;6756;51.354;15.754;2022-07-29T23:08:48;3.40;;;2.57;;
13374;SDS011;6756;51.354;15.754;2022-07-29T23:12:49;4.17;;;2.93;;
13374;SDS011;6756;51.354;15.754;2022-07-29T23:16:49;2.47;;;2.20;;
13374;SDS011;6756;51.354;15.754;2022-07-29T23:20:50;4.23;;;3.03;;
13374;SDS011;6756;51.354;15.754;2022-07-29T23:24:51;3.17;;;2.87;;
13374;SDS011;6756;51.354;15.754;2022-07-29T23:28:52;3.97;;;3.20;;
13374;SDS011;6756;51.354;15.754;2022-07-29T23:32:53;3.73;;;3.30;;
13374;SDS011;6756;51.354;15.754;2022-07-29T23:36:54;4.07;;;2.77;;
13374;SDS011;6756;51.354;15.754;2022-07-29T23:40:55;3.27;;;2.87;;
13374;SDS011;6756;51.354;15.754;2022-07-29T23:44:57;8.57;;;3.17;;
13374;SDS011;6756;51.354;15.754;2022-07-29T23:48:58;3.17;;;2.87;;
13374;SDS011;6756;51.354;15.754;2022-07-29T23:52:59;3.80;;;3.03;;
13374;SDS011;6756;51.354;15.754;2022-07-29T23:56:59;3.33;;;3.00;;
